KBTV

Burlington International Airport

Burlington, Vermont, USA
KBTV 160527Z 1606/1706 28009G16KT P6SM BKN050 FM161500 29009KT P6SM BKN060 FM162300 34007KT P6SM BKN090 FM170100 35007KT P6SM SCT060
Issued Valid From Valid To
Feb-16 @ 05:27 UTC
(6 hours ago)
Feb-16 @ 06:00 UTC
(6 hours ago)
Feb-17 @ 06:00 UTC
(in 18 hours)
Feb-16 @ 06:00 to Feb-16 @ 15:00
KBTV 160527Z 1606/1706 28009G16KT P6SM BKN050
Wind Visibility Clouds
280° at 9 knots
 Gusting to 16 knots
Greater than 6 miles
  • Broken at 5,000' AGL
From Feb-16 @ 15:00 to Feb-16 @ 23:00
FM161500 29009KT P6SM BKN060
Wind Visibility Clouds
290° at 9 knots Greater than 6 miles
  • Broken at 6,000' AGL
From Feb-16 @ 23:00 to Feb-17 @ 01:00
FM162300 34007KT P6SM BKN090
Wind Visibility Clouds
340° at 7 knots Greater than 6 miles
  • Broken at 9,000' AGL
From Feb-17 @ 01:00 to Feb-17 @ 06:00
FM170100 35007KT P6SM SCT060
Wind Visibility Clouds
350° at 7 knots Greater than 6 miles
  • Scattered at 6,000' AGL
KBTV 160527Z 1606/1706 28009G16KT P6SM BKN050 FM161500 29009KT P6SM BKN060 FM162300 34007KT P6SM BKN090 FM170100 35007KT P6SM SCT060
Issued Feb-16 @ 05:27 UTC
(6 hours ago)
Valid From Feb-16 @ 06:00 UTC
(6 hours ago)
Valid To Feb-17 @ 06:00 UTC
(in 18 hours)
Feb-16 @ 06:00 - Feb-16 @ 15:00
Wind Visibility
280° at 9 knots
 Gusting to 16 knots
Greater than 6 miles
Clouds
  • Broken at 5,000' AGL
From Feb-16 @ 15:00 - Feb-16 @ 23:00
Wind Visibility
290° at 9 knots Greater than 6 miles
Clouds
  • Broken at 6,000' AGL
From Feb-16 @ 23:00 - Feb-17 @ 01:00
Wind Visibility
340° at 7 knots Greater than 6 miles
Clouds
  • Broken at 9,000' AGL
From Feb-17 @ 01:00 - Feb-17 @ 06:00
Wind Visibility
350° at 7 knots Greater than 6 miles
Clouds
  • Scattered at 6,000' AGL